Aérodrome :
LOGIN :

S'inscrire | Disclaimer

   EN    FR    IT 

 










Légende :    VFR   VFR Marginal   IFR   IFR Intensif   IFR Très Intensif
Visi : 
Plafond : 
>= 8 km
>= 3000ft
5 à 8 km
1000 à 3000 ft
1500m à 5 km
500 à 1000 ft
800 à 1500m
200 à 500 ft
< 800m
< 200 ft
Symboles :   Orages  Brouillard  Fortes neiges  Fortes précipitations  Vent > 20 kt
SIGMETs :   Divers  Orages  Givrage  Turbulence  Onde Orograph.  Cendres Volcan.






- Altitude de l'aérodrome : 20 ft


EBFN - Koksijde

DERNIER METAR :
  • 190425Z AUTO 31010KT 9999 SCT058/// 07/01 Q1016 BLU

METARs EXPIRÉS :
  • 190355Z AUTO 31011KT 9999 FEW028/// 07/02 Q1016 BLU
  • 190325Z AUTO 30009KT 9999 BKN030/// 07/02 Q1016 BLU
  • 190255Z AUTO 32009KT 9999 BKN029/// 06/02 Q1016 BLU
  • 190225Z AUTO 31009KT 9999 FEW025/// SCT028/// 07/02 Q1016 BLU
  • 190155Z AUTO 31010KT 9999 FEW024/// 07/02 Q1016 BLU

TAF TAF EBFN
Valide du 18 à 19h jusqu'au 19 à 07h UTC


181541Z 1819/1907 34018G29KT 9999 SCT028
PROB40
TEMPO 1819/1907 5000 -SHRA -RA FEW012 BKN018
BECMG 1900/1902 32012KT



MET'MAP, la Météo Aéronautique d'un coup d'oeil ! - Copyright ORBIFLY Décembre 2007 - Disclaimer

ORBIFLY MET'MAP TEAM :

Programmation & Développement : Alexandra Zaïnal
Conception & Développement : Baudouin d'Aumeries
Co-Programmation & Développement : Marc-Olivier Méhu
Soutien technique & logistique : Manuel Goepfert

Contact : metmap@orbifly.com




SOURCES & CREDITS :

   NOAA